createdAt,value
2023-04-18T00:01:52.274Z,12.07
2023-04-18T00:05:53.752Z,13.32
2023-04-18T00:09:55.132Z,12.20
2023-04-18T00:13:59.675Z,13.43
2023-04-18T00:18:03.640Z,12.25
2023-04-18T00:22:07.113Z,13.20
2023-04-18T00:26:09.207Z,13.18
2023-04-18T00:30:11.007Z,11.90
2023-04-18T00:34:12.588Z,12.70
2023-04-18T00:38:14.174Z,12.75
2023-04-18T00:42:15.657Z,12.07
2023-04-18T00:46:17.045Z,12.07
2023-04-18T00:50:19.867Z,13.00
2023-04-18T00:54:21.937Z,11.80
2023-04-18T00:58:24.550Z,11.95
2023-04-18T01:02:27.274Z,11.57
2023-04-18T01:06:29.451Z,11.35
2023-04-18T01:10:31.214Z,11.75
2023-04-18T01:14:32.722Z,11.57
2023-04-18T01:18:34.998Z,12.00
2023-04-18T01:22:36.517Z,12.85
2023-04-18T01:26:38.434Z,13.05
2023-04-18T01:30:40.560Z,11.77
2023-04-18T01:34:42.012Z,11.30
2023-04-18T01:38:43.436Z,12.05
2023-04-18T01:42:44.930Z,11.32
2023-04-18T01:46:46.457Z,12.52
2023-04-18T01:50:48.029Z,12.23
2023-04-18T01:54:49.457Z,10.88
2023-04-18T01:58:50.888Z,11.40
2023-04-18T02:02:52.540Z,11.55
2023-04-18T02:06:54.099Z,12.02
2023-04-18T02:10:55.505Z,11.52
2023-04-18T02:14:56.940Z,11.52
2023-04-18T02:18:58.416Z,11.10
2023-04-18T02:23:00.737Z,11.70
2023-04-18T02:27:02.235Z,12.85
2023-04-18T02:31:03.682Z,11.10
2023-04-18T02:35:05.493Z,12.02
2023-04-18T02:39:07.136Z,11.25
2023-04-18T02:43:08.545Z,11.88
2023-04-18T02:47:10.073Z,12.43
2023-04-18T02:51:11.680Z,11.88
2023-04-18T02:55:13.265Z,12.02
2023-04-18T02:59:14.665Z,11.25
2023-04-18T03:03:16.903Z,11.85
2023-04-18T03:07:18.384Z,11.18
2023-04-18T03:11:19.874Z,12.07
2023-04-18T03:15:21.450Z,11.25
2023-04-18T03:19:22.860Z,11.88
2023-04-18T03:23:24.367Z,10.52
2023-04-18T03:27:25.861Z,11.63
2023-04-18T03:31:27.313Z,11.57
2023-04-18T03:35:28.746Z,12.10
2023-04-18T03:39:30.268Z,12.98
2023-04-18T03:43:31.695Z,11.02
2023-04-18T03:47:33.555Z,11.55
2023-04-18T03:51:43.500Z,10.90
2023-04-18T03:59:47.916Z,11.05
2023-04-18T04:03:49.692Z,10.60
2023-04-18T04:07:51.313Z,11.40
2023-04-18T04:11:52.739Z,11.10
2023-04-18T04:15:54.485Z,11.07
2023-04-18T04:19:56.044Z,11.10
2023-04-18T04:23:57.704Z,10.40
2023-04-18T04:28:01.388Z,11.18
2023-04-18T04:32:05.635Z,10.88
2023-04-18T04:36:09.035Z,10.75
2023-04-18T04:40:10.824Z,11.38
2023-04-18T04:44:12.574Z,12.05
2023-04-18T04:48:14.379Z,11.27
2023-04-18T04:52:16.019Z,10.85
2023-04-18T04:56:17.665Z,11.05
2023-04-18T05:00:20.956Z,12.10
2023-04-18T05:04:22.847Z,11.98
2023-04-18T05:08:24.537Z,11.32
2023-04-18T05:12:26.729Z,13.43
2023-04-18T05:16:28.369Z,12.07
2023-04-18T05:20:29.810Z,11.57
2023-04-18T05:24:32.498Z,11.90
2023-04-18T05:28:34.234Z,11.20
2023-04-18T05:32:35.824Z,10.38
2023-04-18T05:36:37.432Z,10.65
2023-04-18T05:40:38.869Z,10.95
2023-04-18T05:44:40.406Z,10.27
2023-04-18T05:48:41.835Z,10.43
2023-04-18T05:52:43.345Z,12.32
2023-04-18T05:56:44.888Z,10.65
2023-04-18T06:00:47.957Z,11.20
2023-04-18T06:04:49.881Z,12.05
2023-04-18T06:08:51.495Z,11.00
2023-04-18T06:12:52.991Z,11.48
2023-04-18T06:16:54.529Z,10.43
2023-04-18T06:20:56.045Z,10.15
2023-04-18T06:24:59.271Z,11.70
2023-04-18T06:29:01.115Z,10.98
2023-04-18T06:33:03.324Z,10.50
2023-04-18T06:37:05.773Z,10.48
2023-04-18T06:41:07.228Z,10.32
2023-04-18T06:45:11.860Z,10.20
2023-04-18T06:49:14.453Z,10.85
2023-04-18T06:53:15.963Z,10.48
2023-04-18T06:57:17.514Z,10.73
2023-04-18T07:01:19.550Z,9.65
2023-04-18T07:05:21.370Z,9.55
2023-04-18T07:09:23.002Z,9.82
2023-04-18T07:13:24.490Z,10.57
2023-04-18T07:17:26.103Z,10.57
2023-04-18T07:21:27.965Z,9.98
2023-04-18T07:25:29.566Z,10.13
2023-04-18T07:29:31.269Z,9.63
2023-04-18T07:33:33.765Z,9.85
2023-04-18T07:37:35.370Z,9.00
2023-04-18T07:41:36.863Z,9.57
2023-04-18T07:45:38.440Z,9.18
2023-04-18T07:49:40.005Z,9.85
2023-04-18T07:53:41.784Z,9.70
2023-04-18T07:57:45.257Z,10.30
2023-04-18T08:01:47.965Z,9.30
2023-04-18T08:05:50.348Z,9.50
2023-04-18T08:09:51.816Z,10.05
2023-04-18T08:13:53.599Z,9.85
2023-04-18T08:17:56.084Z,9.45
2023-04-18T08:22:11.072Z,9.88
2023-04-18T08:26:12.615Z,9.63
2023-04-18T08:30:14.749Z,9.82
2023-04-18T08:34:16.285Z,10.15
2023-04-18T08:38:18.898Z,10.60
2023-04-18T08:42:23.167Z,10.60
2023-04-18T08:46:26.381Z,9.82
2023-04-18T08:50:28.028Z,9.40
2023-04-18T08:54:30.520Z,10.50
2023-04-18T08:58:33.716Z,11.00
2023-04-18T09:02:43.610Z,10.35
2023-04-18T09:06:54.318Z,10.02
2023-04-18T09:10:56.155Z,11.13
2023-04-18T09:15:11.124Z,11.52
2023-04-18T09:19:17.888Z,11.55
2023-04-18T09:23:24.415Z,9.75
2023-04-18T09:27:26.023Z,10.40
2023-04-18T09:31:27.760Z,10.10
2023-04-18T09:35:29.522Z,10.07
2023-04-18T09:39:30.968Z,9.85
2023-04-18T09:43:32.484Z,9.43
2023-04-18T09:47:35.292Z,11.88
2023-04-18T09:51:40.498Z,10.43
2023-04-18T09:55:42.683Z,11.68
2023-04-18T09:59:54.614Z,11.05
2023-04-18T10:03:57.600Z,11.10
2023-04-18T10:07:59.595Z,9.98
2023-04-18T10:12:02.555Z,9.63
2023-04-18T10:16:04.568Z,9.65
2023-04-18T10:20:10.703Z,8.27
2023-04-18T10:24:52.924Z,9.30
2023-04-18T10:28:58.667Z,8.95
2023-04-18T10:33:30.297Z,9.93
2023-04-18T10:37:33.892Z,9.15
2023-04-18T10:41:38.161Z,9.68
2023-04-18T10:45:39.759Z,9.00
2023-04-18T10:49:53.683Z,14.77
2023-04-18T10:53:57.775Z,9.25
2023-04-18T10:57:59.604Z,8.48
2023-04-18T11:02:25.685Z,8.65
2023-04-18T11:06:27.646Z,9.73
2023-04-18T11:10:29.839Z,9.00
2023-04-18T11:14:45.247Z,9.90
2023-04-18T11:18:46.681Z,8.77
2023-04-18T11:22:50.528Z,8.32
2023-04-18T11:26:55.938Z,8.55
2023-04-18T11:31:02.710Z,8.80
2023-04-18T11:35:04.443Z,7.97
2023-04-18T11:39:06.414Z,8.88
2023-04-18T11:43:07.870Z,9.75
2023-04-18T11:47:31.684Z,8.85
2023-04-18T11:51:39.730Z,9.27
2023-04-18T11:55:41.225Z,7.85
2023-04-18T11:59:48.835Z,8.20
2023-04-18T12:04:07.126Z,9.43
2023-04-18T12:08:11.722Z,9.63
2023-04-18T12:12:18.994Z,8.77
2023-04-18T12:16:20.497Z,11.95
2023-04-18T12:20:25.080Z,9.15
2023-04-18T12:24:28.883Z,8.55
2023-04-18T12:28:31.718Z,8.68
2023-04-18T12:32:33.167Z,8.10
2023-04-18T12:36:35.027Z,8.35
2023-04-18T12:40:39.116Z,8.15
2023-04-18T12:44:40.942Z,9.05
2023-04-18T12:48:42.470Z,9.68
2023-04-18T12:52:44.900Z,23.02
2023-04-18T12:56:46.907Z,10.18
2023-04-18T13:00:48.435Z,9.68
2023-04-18T13:04:51.400Z,10.95
2023-04-18T13:08:52.915Z,11.10
2023-04-18T13:12:54.392Z,10.82
2023-04-18T13:16:55.905Z,10.50
2023-04-18T13:20:57.363Z,11.23
2023-04-18T13:24:59.159Z,12.57
2023-04-18T13:29:00.563Z,12.43
2023-04-18T13:33:02.068Z,11.75
2023-04-18T13:37:03.637Z,11.10
2023-04-18T13:41:12.441Z,10.43
2023-04-18T13:49:16.189Z,10.25
2023-04-18T13:53:18.268Z,10.93
2023-04-18T13:57:19.825Z,10.43
2023-04-18T14:01:22.177Z,10.88
2023-04-18T14:05:23.728Z,10.77
2023-04-18T14:09:26.748Z,10.75
2023-04-18T14:13:28.179Z,10.07
2023-04-18T14:17:30.941Z,11.07
2023-04-18T14:21:32.354Z,10.35
2023-04-18T14:25:34.775Z,10.23
2023-04-18T14:29:36.210Z,9.90
2023-04-18T14:33:38.383Z,10.02
2023-04-18T14:37:39.860Z,9.75
2023-04-18T14:41:41.507Z,9.18
2023-04-18T14:45:42.957Z,8.82
2023-04-18T14:49:44.382Z,8.63
2023-04-18T14:53:46.198Z,8.63
2023-04-18T14:57:47.691Z,9.02
2023-04-18T15:01:49.195Z,9.35
2023-04-18T15:05:52.985Z,8.55
2023-04-18T15:09:54.449Z,13.68
2023-04-18T15:13:56.869Z,8.57
2023-04-18T15:17:58.401Z,7.88
2023-04-18T15:21:59.968Z,9.15
2023-04-18T15:26:01.516Z,8.35
2023-04-18T15:30:03.675Z,8.50
2023-04-18T15:34:06.257Z,8.23
2023-04-18T15:38:07.716Z,7.25
2023-04-18T15:42:09.173Z,7.22
2023-04-18T15:46:10.986Z,6.70
2023-04-18T15:50:12.514Z,7.25
2023-04-18T15:54:14.180Z,5.28
2023-04-18T15:58:15.817Z,5.72
2023-04-18T16:02:17.455Z,5.40
2023-04-18T16:06:22.179Z,5.30
2023-04-18T16:10:23.788Z,4.88
2023-04-18T16:14:25.319Z,5.65
2023-04-18T16:18:26.808Z,5.13
2023-04-18T16:22:28.226Z,4.93
2023-04-18T16:26:29.756Z,4.65
2023-04-18T16:30:31.264Z,4.50
2023-04-18T16:34:34.138Z,4.28
2023-04-18T16:38:35.739Z,4.30
2023-04-18T16:42:37.478Z,3.92
2023-04-18T16:46:38.999Z,4.05
2023-04-18T16:50:40.639Z,3.75
2023-04-18T16:54:42.077Z,3.20
2023-04-18T16:58:43.577Z,3.30
2023-04-18T17:02:45.242Z,3.90
2023-04-18T17:06:46.836Z,3.75
2023-04-18T17:10:51.646Z,3.90
2023-04-18T17:14:53.121Z,2.97
2023-04-18T17:18:55.975Z,3.97
2023-04-18T17:22:57.472Z,3.20
2023-04-18T17:27:00.168Z,4.07
2023-04-18T17:31:01.877Z,3.50
2023-04-18T17:35:06.164Z,3.83
2023-04-18T17:39:07.766Z,3.50
2023-04-18T17:43:11.866Z,3.50
2023-04-18T17:47:13.370Z,3.63
2023-04-18T17:51:16.360Z,3.95
2023-04-18T17:55:18.068Z,3.20
2023-04-18T17:59:19.557Z,3.95
2023-04-18T18:03:21.350Z,3.60
2023-04-18T18:07:22.927Z,4.40
2023-04-18T18:11:24.487Z,4.60
2023-04-18T18:15:26.244Z,3.90
2023-04-18T18:19:27.722Z,3.35
2023-04-18T18:23:29.187Z,3.97
2023-04-18T18:27:31.016Z,4.80
2023-04-18T18:31:32.489Z,4.75
2023-04-18T18:35:34.895Z,4.03
2023-04-18T18:39:36.661Z,4.18
2023-04-18T18:43:38.095Z,4.00
2023-04-18T18:47:40.193Z,4.55
2023-04-18T18:51:41.933Z,4.25
2023-04-18T18:55:44.186Z,4.10
2023-04-18T18:59:45.616Z,4.03
2023-04-18T19:03:48.202Z,3.88
2023-04-18T19:07:51.382Z,4.07
2023-04-18T19:11:53.148Z,4.65
2023-04-18T19:15:54.650Z,3.90
2023-04-18T19:19:57.911Z,3.70
2023-04-18T19:23:59.399Z,3.65
2023-04-18T19:28:00.894Z,4.60
2023-04-18T19:32:02.482Z,4.43
2023-04-18T19:36:04.280Z,4.07
2023-04-18T19:40:06.970Z,4.20
2023-04-18T19:44:08.619Z,4.22
2023-04-18T19:48:10.122Z,4.05
2023-04-18T19:52:11.640Z,4.30
2023-04-18T19:56:14.904Z,3.78
2023-04-18T20:00:16.782Z,4.07
2023-04-18T20:04:18.328Z,4.57
2023-04-18T20:08:20.344Z,4.30
2023-04-18T20:12:22.179Z,4.15
2023-04-18T20:16:23.865Z,4.97
2023-04-18T20:20:25.400Z,4.72
2023-04-18T20:24:27.927Z,4.35
2023-04-18T20:28:30.721Z,5.10
2023-04-18T20:32:33.468Z,5.53
2023-04-18T20:36:35.388Z,4.95
2023-04-18T20:40:39.728Z,4.65
2023-04-18T20:44:43.213Z,5.00
2023-04-18T20:48:44.716Z,5.60
2023-04-18T20:52:47.172Z,5.43
2023-04-18T20:56:48.567Z,4.88
2023-04-18T21:00:50.142Z,4.78
2023-04-18T21:04:52.166Z,5.60
2023-04-18T21:08:53.880Z,4.85
2023-04-18T21:12:55.342Z,5.00
2023-04-18T21:16:57.854Z,4.78
2023-04-18T21:20:59.366Z,5.72
2023-04-18T21:25:00.757Z,5.07
2023-04-18T21:29:06.516Z,5.40
2023-04-18T21:33:07.938Z,7.25
2023-04-18T21:37:09.408Z,6.03
2023-04-18T21:41:14.118Z,5.35
2023-04-18T21:45:15.509Z,6.15
2023-04-18T21:49:17.016Z,6.18
2023-04-18T21:53:18.589Z,5.60
2023-04-18T21:57:19.998Z,6.38
2023-04-18T22:01:21.455Z,6.47
2023-04-18T22:05:22.934Z,6.15
2023-04-18T22:09:24.392Z,6.13
2023-04-18T22:13:29.807Z,6.13
2023-04-18T22:17:31.338Z,5.95
2023-04-18T22:21:32.787Z,5.82
2023-04-18T22:25:34.809Z,6.32
2023-04-18T22:29:36.337Z,5.88
2023-04-18T22:33:37.805Z,6.13
2023-04-18T22:37:39.292Z,5.53
2023-04-18T22:41:40.772Z,6.68
2023-04-18T22:45:42.243Z,5.15
2023-04-18T22:49:44.296Z,6.03
2023-04-18T22:53:45.743Z,5.03
2023-04-18T22:57:47.165Z,5.15
2023-04-18T23:01:48.661Z,4.05
2023-04-18T23:05:50.201Z,4.47
2023-04-18T23:09:51.626Z,4.20
2023-04-18T23:13:53.020Z,4.35
2023-04-18T23:17:54.576Z,4.47
2023-04-18T23:21:56.023Z,4.65
2023-04-18T23:25:57.478Z,4.30
2023-04-18T23:29:58.939Z,3.78
2023-04-18T23:34:00.397Z,4.70
2023-04-18T23:38:01.819Z,4.15
2023-04-18T23:42:04.732Z,3.50
2023-04-18T23:46:06.212Z,3.58
2023-04-18T23:50:08.210Z,4.00
2023-04-18T23:54:09.759Z,3.88
2023-04-18T23:58:11.240Z,3.67
